Time;durP1;ratioP1;P1;durP2;ratioP2;P2;SDS_P1;SDS_P2;PMS_P1;PMS_P2;Temp;Humidity;BMP_temperature;BMP_pressure;BME280_temperature;BME280_humidity;BME280_pressure;Samples;Min_cycle;Max_cycle;Signal;HPM_P1;HPM_P2
2023/03/06 00:02:46;;;;;;;10.57;3.53;;;2.00;99.90;;;;;;4849227;29;20490;-84
2023/03/06 00:05:27;;;;;;;13.50;4.80;;;2.10;99.90;;;;;;4833328;29;20081;-85
2023/03/06 00:08:13;;;;;;;9.73;3.77;;;1.10;99.90;;;;;;4830104;29;20517;-84
2023/03/06 00:10:45;;;;;;;14.83;3.97;;;2.70;99.90;;;;;;4832130;29;20218;-84
2023/03/06 00:13:15;;;;;;;10.57;3.53;;;2.70;99.90;;;;;;4842032;29;20483;-85
2023/03/06 00:15:59;;;;;;;12.27;4.00;;;1.80;99.90;;;;;;4843666;29;20049;-84
2023/03/06 00:18:54;;;;;;;;;;;1.40;99.90;;;;;;4853245;29;20054;-84
2023/03/06 00:21:26;;;;;;;9.70;3.05;;;0.30;99.90;;;;;;4863778;29;19935;-84
2023/03/06 00:24:07;;;;;;;11.97;3.27;;;2.70;99.90;;;;;;4826092;29;20496;-85
2023/03/06 00:26:51;;;;;;;11.30;2.90;;;1.30;99.90;;;;;;4826076;29;20118;-85
2023/03/06 00:29:16;;;;;;;8.75;2.92;;;1.20;99.90;;;;;;4826412;29;20053;-85
2023/03/06 00:31:45;;;;;;;11.23;3.10;;;0.20;99.90;;;;;;4850641;29;20057;-84
2023/03/06 00:34:17;;;;;;;12.20;2.90;;;1.10;99.90;;;;;;4825813;29;20065;-84
2023/03/06 00:37:01;;;;;;;11.07;3.33;;;1.40;99.90;;;;;;4840537;24;20058;-85
2023/03/06 00:39:29;;;;;;;10.57;3.20;;;1.10;99.90;;;;;;4823666;29;20093;-85
2023/03/06 00:42:00;;;;;;;15.30;3.50;;;1.40;99.90;;;;;;4823438;29;20050;-84
2023/03/06 00:45:17;;;;;;;13.50;3.20;;;1.20;99.90;;;;;;5014369;24;20008;-84
2023/03/06 00:47:42;;;;;;;11.77;3.50;;;2.20;99.90;;;;;;4810871;29;20968;-85
2023/03/06 00:50:09;;;;;;;12.80;3.67;;;1.30;99.90;;;;;;4831109;23;20054;-85
2023/03/06 00:52:40;;;;;;;10.00;3.07;;;1.30;99.90;;;;;;4876988;24;20058;-84
2023/03/06 00:56:07;;;;;;;11.17;3.13;;;1.20;99.90;;;;;;4841578;29;20037;-85
2023/03/06 00:59:05;;;;;;;10.47;3.27;;;0.50;99.90;;;;;;4825851;29;20053;-84
2023/03/06 01:02:12;;;;;;;9.80;3.20;;;0.80;99.90;;;;;;4784195;30;20104;-85
2023/03/06 01:08:08;;;;;;;10.93;3.47;;;1.00;99.90;;;;;;4744625;29;20138;-85
2023/03/06 01:10:55;;;;;;;9.87;3.50;;;1.10;99.90;;;;;;4769248;30;20547;-85
2023/03/06 01:13:58;;;;;;;;;;;;;;;;;;;;;
2023/03/06 01:16:40;;;;;;;10.23;3.60;;;2.10;99.90;;;;;;4743535;30;20489;-85
2023/03/06 01:19:17;;;;;;;13.70;3.67;;;1.40;99.90;;;;;;4784807;29;20143;-84
2023/03/06 01:22:07;;;;;;;10.47;3.70;;;3.10;99.90;;;;;;4769849;30;20096;-85
2023/03/06 01:25:13;;;;;;;10.70;3.70;;;1.60;99.90;;;;;;4769061;30;20119;-85
2023/03/06 01:27:47;;;;;;;11.00;3.70;;;1.60;99.90;;;;;;4770217;29;20108;-85
2023/03/06 01:30:41;;;;;;;12.37;3.63;;;1.90;99.90;;;;;;4788019;29;20047;-85
2023/03/06 01:33:18;;;;;;;11.73;3.90;;;0.40;99.90;;;;;;4824637;29;20057;-85
2023/03/06 01:35:50;;;;;;;10.53;4.03;;;1.20;99.90;;;;;;4819512;29;20060;-84
2023/03/06 01:38:47;;;;;;;13.60;4.13;;;1.60;99.90;;;;;;4853505;29;20038;-85
2023/03/06 01:41:38;;;;;;;11.50;4.17;;;0.20;99.90;;;;;;4857297;29;20049;-85
2023/03/06 01:44:19;;;;;;;12.77;3.63;;;1.40;99.90;;;;;;4830787;29;20050;-85
2023/03/06 01:46:47;;;;;;;14.57;4.03;;;1.00;99.90;;;;;;4848475;29;20058;-84
2023/03/06 01:52:59;;;;;;;12.17;3.93;;;1.20;99.90;;;;;;4854378;29;20117;-85
2023/03/06 01:55:46;;;;;;;12.83;4.53;;;0.70;99.90;;;;;;4831090;29;20098;-84
2023/03/06 01:58:27;;;;;;;11.40;4.40;;;3.00;99.90;;;;;;4830743;29;20056;-84
2023/03/06 02:04:21;;;;;;;14.53;5.07;;;1.20;99.90;;;;;;4849019;23;20066;-84
2023/03/06 02:06:47;;;;;;;14.37;4.97;;;2.10;99.90;;;;;;4830051;29;20057;-84
2023/03/06 02:09:33;;;;;;;11.40;5.30;;;1.10;99.90;;;;;;4817178;29;20053;-84
2023/03/06 02:12:51;;;;;;;13.50;5.23;;;2.50;99.90;;;;;;4840425;29;20042;-84
2023/03/06 02:15:20;;;;;;;15.23;5.90;;;2.40;99.90;;;;;;4830995;29;20050;-85
2023/03/06 02:18:01;;;;;;;16.53;6.43;;;0.90;99.90;;;;;;4830120;29;20049;-84
2023/03/06 02:21:05;;;;;;;13.00;6.43;;;0.80;99.90;;;;;;4829818;29;20124;-85
2023/03/06 02:23:56;;;;;;;16.50;7.07;;;2.40;99.90;;;;;;4847221;29;20122;-84
2023/03/06 02:43:07;;;;;;;15.30;7.03;;;1.60;99.90;;;;;;4828911;29;20050;-84
2023/03/06 02:45:49;;;;;;;17.23;7.65;;;1.70;99.90;;;;;;4826902;29;20078;-84
2023/03/06 02:48:34;;;;;;;15.07;7.10;;;1.30;99.90;;;;;;4808932;29;20098;-84
2023/03/06 02:51:09;;;;;;;16.00;7.33;;;0.70;99.90;;;;;;4809406;29;20134;-84
2023/03/06 02:53:39;;;;;;;13.83;7.33;;;2.40;99.90;;;;;;4809247;29;20054;-85
2023/03/06 02:56:37;;;;;;;16.13;7.47;;;1.50;99.90;;;;;;4824937;29;20042;-84
2023/03/06 02:59:18;;;;;;;15.93;8.03;;;1.40;99.90;;;;;;4813216;29;20102;-84
2023/03/06 03:01:46;;;;;;;15.70;7.67;;;2.70;99.90;;;;;;4836048;29;20054;-84
2023/03/06 03:04:42;;;;;;;14.50;7.70;;;2.00;99.90;;;;;;4832264;29;20055;-84
2023/03/06 03:07:37;;;;;;;14.87;7.57;;;2.20;99.90;;;;;;4811834;29;20460;-85
2023/03/06 03:10:03;;;;;;;14.47;7.67;;;1.50;99.90;;;;;;4812431;29;20065;-84
2023/03/06 03:12:47;;;;;;;15.50;7.77;;;1.50;99.90;;;;;;5061181;23;20054;-85
2023/03/06 03:15:27;;;;;;;;;;;1.40;99.90;;;;;;4828337;29;20140;-85
2023/03/06 03:18:05;;;;;;;15.50;7.90;;;1.70;99.90;;;;;;4833537;29;19920;-82
2023/03/06 03:24:15;;;;;;;17.20;8.03;;;2.60;99.90;;;;;;4843304;29;20075;-83
2023/03/06 03:26:59;;;;;;;19.53;8.97;;;3.60;99.90;;;;;;4827263;29;20054;-83
2023/03/06 03:29:41;;;;;;;16.90;8.67;;;0.90;99.90;;;;;;4842709;29;20208;-83
2023/03/06 03:32:25;;;;;;;16.63;8.33;;;1.90;99.90;;;;;;4835173;29;20520;-82
2023/03/06 03:38:44;;;;;;;15.10;8.17;;;1.60;99.90;;;;;;4826075;29;20085;-85
2023/03/06 03:41:16;;;;;;;16.53;8.47;;;1.10;99.90;;;;;;4827858;24;20111;-82
2023/03/06 03:43:41;;;;;;;19.03;8.53;;;2.20;99.90;;;;;;4808072;29;20058;-83
2023/03/06 03:46:26;;;;;;;18.37;8.70;;;2.10;99.90;;;;;;4808474;29;20050;-83
2023/03/06 03:48:58;;;;;;;20.60;8.97;;;1.50;99.90;;;;;;4808664;29;20558;-83
2023/03/06 03:51:32;;;;;;;18.00;9.47;;;2.10;99.90;;;;;;4826556;29;20041;-82
2023/03/06 03:54:13;;;;;;;18.40;9.33;;;2.10;99.90;;;;;;4828708;29;20046;-83
2023/03/06 03:56:45;;;;;;;17.10;9.13;;;1.70;99.90;;;;;;4824046;29;20042;-82
2023/03/06 03:59:10;;;;;;;19.20;9.33;;;2.10;99.90;;;;;;4807483;29;20058;-82
2023/03/06 04:01:43;;;;;;;20.13;10.07;;;1.40;99.90;;;;;;4808555;29;20042;-82
2023/03/06 04:04:30;;;;;;;20.17;9.83;;;2.00;99.90;;;;;;4808179;29;20062;-82
2023/03/06 04:07:11;;;;;;;18.80;10.30;;;1.80;99.90;;;;;;4825140;29;20045;-82
2023/03/06 04:10:14;;;;;;;17.47;9.43;;;2.00;99.90;;;;;;4824425;29;20129;-82
2023/03/06 04:12:40;;;;;;;13.90;6.50;;;0.80;99.90;;;;;;4807114;29;20510;-81
2023/03/06 04:15:09;;;;;;;12.73;4.70;;;1.30;99.90;;;;;;4808384;29;20042;-82
2023/03/06 04:17:54;;;;;;;10.47;4.10;;;1.50;99.90;;;;;;4824134;29;20437;-81
2023/03/06 04:20:32;;;;;;;8.73;3.63;;;1.60;99.90;;;;;;4807592;29;20058;-84
2023/03/06 04:23:13;;;;;;;8.60;3.13;;;1.60;99.90;;;;;;4808293;29;20042;-84
2023/03/06 04:25:45;;;;;;;10.03;3.60;;;1.00;99.90;;;;;;4823067;29;20625;-82
2023/03/06 04:28:20;;;;;;;9.50;3.20;;;0.80;99.90;;;;;;4807815;29;20050;-84
2023/03/06 04:30:46;;;;;;;8.57;3.20;;;1.80;99.90;;;;;;4824348;29;20121;-82
2023/03/06 04:33:17;;;;;;;7.57;2.77;;;0.30;99.90;;;;;;4834298;29;20069;-82
2023/03/06 04:35:46;;;;;;;7.73;2.80;;;1.00;99.90;;;;;;4818201;29;20058;-82
2023/03/06 04:38:24;;;;;;;8.07;3.10;;;0.60;99.90;;;;;;4824800;29;20050;-82
2023/03/06 04:40:53;;;;;;;7.33;2.73;;;0.40;99.90;;;;;;4804928;29;20046;-82
2023/03/06 04:43:21;;;;;;;11.20;3.10;;;1.90;99.90;;;;;;4832301;29;20046;-82
2023/03/06 04:45:50;;;;;;;8.53;2.90;;;1.60;99.90;;;;;;4824787;29;20054;-83
2023/03/06 04:48:35;;;;;;;8.30;3.10;;;1.00;99.90;;;;;;4823650;29;20046;-83
2023/03/06 04:54:12;;;;;;;8.90;2.90;;;0.70;99.90;;;;;;4846934;23;20062;-83
2023/03/06 04:56:46;;;;;;;8.77;3.20;;;0.20;99.90;;;;;;4826404;29;20057;-83
2023/03/06 04:59:12;;;;;;;8.43;3.13;;;0.50;99.90;;;;;;4825801;29;20049;-83
2023/03/06 05:01:46;;;;;;;8.23;3.00;;;0.00;99.90;;;;;;4828826;29;20049;-83
2023/03/06 05:04:39;;;;;;;7.83;2.87;;;0.40;99.90;;;;;;4828807;29;20449;-83
2023/03/06 05:13:08;;;;;;;7.73;2.43;;;0.20;99.90;;;;;;5010395;23;20128;-83
2023/03/06 05:15:48;;;;;;;8.70;3.10;;;1.20;99.90;;;;;;4823161;29;20137;-83
2023/03/06 05:18:23;;;;;;;8.17;2.80;;;0.10;99.90;;;;;;4823959;29;20050;-83
2023/03/06 05:20:49;;;;;;;7.80;3.03;;;-1.30;99.90;;;;;;4822141;29;20055;-83
2023/03/06 05:23:37;;;;;;;7.90;2.77;;;0.00;99.90;;;;;;4814195;29;20179;-83
2023/03/06 05:26:15;;;;;;;9.10;2.80;;;0.40;99.90;;;;;;4823455;29;20499;-83
2023/03/06 05:29:47;;;;;;;;;;;;;;;;;;;;;
2023/03/06 05:46:41;;;;;;;8.83;2.53;;;-0.50;99.90;;;;;;4855260;29;20048;-83
2023/03/06 05:54:20;;;;;;;7.93;2.70;;;0.20;99.90;;;;;;4812895;29;20062;-84
2023/03/06 05:56:49;;;;;;;7.77;2.60;;;2.20;99.90;;;;;;4822081;29;20488;-84
2023/03/06 05:59:15;;;;;;;7.90;2.57;;;1.20;99.90;;;;;;4822383;29;20163;-84
2023/03/06 06:01:59;;;;;;;8.20;2.83;;;0.00;99.90;;;;;;4811740;29;20073;-85
2023/03/06 06:04:26;;;;;;;9.00;2.38;;;0.00;99.90;;;;;;4830412;29;20528;-83
2023/03/06 06:10:44;;;;;;;8.13;2.60;;;0.40;99.90;;;;;;4824162;29;20118;-84
2023/03/06 06:13:13;;;;;;;8.70;2.60;;;0.10;99.90;;;;;;5022629;23;1143378;-84
2023/03/06 06:15:54;;;;;;;8.23;2.60;;;-0.40;99.90;;;;;;4847864;29;20049;-83
2023/03/06 06:18:41;;;;;;;8.13;2.47;;;0.10;99.90;;;;;;4860765;29;20340;-84
2023/03/06 06:22:14;;;;;;;9.23;2.80;;;-0.50;99.90;;;;;;4844204;29;20049;-84
2023/03/06 06:24:51;;;;;;;9.52;3.13;;;0.30;99.90;;;;;;4839192;29;20057;-84
2023/03/06 06:27:19;;;;;;;8.73;2.80;;;-0.40;99.90;;;;;;4829991;29;20060;-84
2023/03/06 06:30:07;;;;;;;9.30;2.80;;;-0.40;99.90;;;;;;4827247;29;20460;-84
2023/03/06 06:32:33;;;;;;;9.03;2.77;;;-0.10;99.90;;;;;;4847145;29;20149;-84
2023/03/06 06:35:13;;;;;;;9.43;2.57;;;-0.30;99.90;;;;;;4848444;29;20407;-84
2023/03/06 06:37:45;;;;;;;9.80;3.07;;;-0.10;99.90;;;;;;4883823;23;20058;-84
2023/03/06 06:40:11;;;;;;;8.70;2.90;;;0.50;99.90;;;;;;4844249;29;20525;-84
2023/03/06 06:42:46;;;;;;;9.43;3.10;;;0.00;99.90;;;;;;4847872;29;20080;-84
2023/03/06 06:45:17;;;;;;;10.67;2.67;;;0.80;99.90;;;;;;4830360;29;20050;-84
2023/03/06 06:47:43;;;;;;;10.13;3.60;;;-0.10;99.90;;;;;;4831012;29;20471;-84
2023/03/06 06:50:20;;;;;;;11.47;3.50;;;-0.20;99.90;;;;;;4838870;29;20136;-84
2023/03/06 06:53:06;;;;;;;8.63;2.90;;;0.10;99.90;;;;;;4848513;29;20482;-83
2023/03/06 06:59:16;;;;;;;9.73;3.03;;;0.10;99.90;;;;;;4837266;29;20551;-84
2023/03/06 07:02:03;;;;;;;8.97;2.80;;;-0.30;99.90;;;;;;4798983;29;20050;-84
2023/03/06 07:04:29;;;;;;;8.27;2.70;;;2.10;99.90;;;;;;4835273;29;20065;-84
2023/03/06 07:07:03;;;;;;;8.10;2.80;;;0.90;99.90;;;;;;4844347;29;20038;-84
2023/03/06 07:09:41;;;;;;;10.90;3.17;;;-0.20;99.90;;;;;;4858377;29;20128;-83
2023/03/06 07:12:26;;;;;;;9.20;3.10;;;1.30;99.90;;;;;;4827395;29;20902;-83
2023/03/06 07:15:13;;;;;;;9.70;2.70;;;-0.10;99.90;;;;;;4843419;29;20400;-83
2023/03/06 07:17:42;;;;;;;9.13;2.80;;;1.30;99.90;;;;;;4845348;29;20046;-88
2023/03/06 07:23:56;;;;;;;8.27;2.63;;;0.50;99.90;;;;;;4798615;29;20063;-90
2023/03/06 07:29:10;;;;;;;7.90;2.47;;;0.70;99.90;;;;;;2005569;24;21068;-92
2023/03/06 07:31:54;;;;;;;10.27;2.47;;;0.40;99.90;;;;;;4830556;29;20034;-94
2023/03/06 07:34:46;;;;;;;9.17;2.67;;;2.80;99.90;;;;;;4827974;29;20046;-94
2023/03/06 07:37:30;;;;;;;8.00;2.50;;;0.30;99.90;;;;;;4818991;29;20078;-95
2023/03/06 07:40:06;;;;;;;7.97;2.40;;;1.20;99.90;;;;;;4842266;29;20046;-93
2023/03/06 07:42:55;;;;;;;9.80;2.80;;;0.80;99.90;;;;;;4815007;29;20058;-94
2023/03/06 07:49:30;;;;;;;9.97;2.80;;;0.90;99.90;;;;;;5075748;23;20053;-96
2023/03/06 07:52:21;;;;;;;9.13;2.70;;;2.10;99.90;;;;;;4812310;29;20064;-93
2023/03/06 07:57:43;;;;;;;9.30;2.93;;;0.90;99.90;;;;;;5028067;24;20423;-92
2023/03/06 08:00:21;;;;;;;8.43;2.90;;;0.20;99.90;;;;;;4828107;29;20050;-94
2023/03/06 08:03:20;;;;;;;8.37;2.90;;;1.10;99.90;;;;;;4844896;29;20053;-93
2023/03/06 08:13:51;;;;;;;9.43;3.13;;;0.50;99.90;;;;;;4825278;29;20053;-93
2023/03/06 08:16:51;;;;;;;;;;;;;;;;;;;;;
2023/03/06 08:19:49;;;;;;;8.70;3.37;;;1.50;99.90;;;;;;4748783;30;20085;-95
2023/03/06 08:22:34;;;;;;;10.20;3.10;;;3.60;99.90;;;;;;4723751;30;20056;-96
2023/03/06 08:25:20;;;;;;;9.47;2.30;;;2.60;99.90;;;;;;4737589;30;20074;-96
2023/03/06 08:27:52;;;;;;;8.90;2.40;;;1.10;99.90;;;;;;4709213;30;20061;-93
2023/03/06 08:30:23;;;;;;;8.37;2.70;;;1.30;99.90;;;;;;4722834;30;20203;-96
2023/03/06 08:41:56;;;;;;;8.07;2.20;;;1.30;99.90;;;;;;4892449;23;20046;-95
2023/03/06 08:52:04;;;;;;;8.60;2.63;;;1.60;99.90;;;;;;4836575;29;20064;-94
2023/03/06 10:15:46;;;;;;;;;;;;;;;;;;;;;
2023/03/06 10:19:02;;;;;;;5.07;1.30;;;3.90;99.90;;;;;;4851016;29;20174;-96
2023/03/06 10:22:16;;;;;;;6.57;1.60;;;4.10;99.90;;;;;;4848827;29;20058;-96
2023/03/06 10:32:22;;;;;;;6.30;1.57;;;6.80;99.90;;;;;;5026051;24;20577;-95
2023/03/06 10:34:49;;;;;;;4.40;1.10;;;4.90;99.90;;;;;;4830117;29;20487;-92
2023/03/06 10:37:21;;;;;;;1.93;0.90;;;4.90;99.90;;;;;;4866396;29;20146;-94
2023/03/06 10:40:35;;;;;;;3.67;0.97;;;4.70;99.90;;;;;;4854987;29;20487;-93
2023/03/06 10:45:49;;;;;;;5.40;1.10;;;5.10;99.90;;;;;;4884952;23;20062;-94
2023/03/06 11:00:37;;;;;;;5.87;1.20;;;4.90;99.90;;;;;;5019350;23;20055;-93
2023/03/06 12:03:46;;;;;;;3.73;1.33;;;6.00;99.90;;;;;;5881157;23;21352;31
2023/03/06 13:25:49;;;;;;;5.72;1.50;;;6.40;99.90;;;;;;5128847;23;20057;-92
2023/03/06 13:51:51;;;;;;;7.37;1.60;;;6.20;99.90;;;;;;5244148;24;20168;-93
2023/03/06 14:19:42;;;;;;;6.18;1.58;;;7.00;99.90;;;;;;4824626;29;20057;-90
2023/03/06 16:24:37;;;;;;;5.63;1.70;;;5.20;99.90;;;;;;2370951;23;20399;-91
2023/03/06 16:56:52;;;;;;;6.40;1.70;;;5.00;99.90;;;;;;4824285;29;19932;-92
2023/03/06 18:51:46;;;;;;;20.30;10.20;;;2.80;99.90;;;;;;4753989;30;20067;-82
2023/03/06 18:54:52;;;;;;;20.63;10.83;;;2.60;99.90;;;;;;4754654;30;20506;-83
2023/03/06 19:01:06;;;;;;;19.33;9.60;;;3.80;99.90;;;;;;4833036;23;20070;-83
2023/03/06 19:03:47;;;;;;;21.30;10.47;;;3.60;99.90;;;;;;4777957;30;20063;-83
2023/03/06 19:10:05;;;;;;;23.47;11.33;;;1.90;99.90;;;;;;4769834;30;20059;-83
2023/03/06 19:20:08;;;;;;;;;;;;;;;;;;;;;
2023/03/06 19:32:34;;;;;;;;;;;;;;;;;;;;;
2023/03/06 19:39:36;;;;;;;33.13;16.00;;;2.20;99.90;;;;;;4804051;29;20153;-85
2023/03/06 21:02:24;;;;;;;48.37;23.23;;;2.70;99.90;;;;;;4869828;23;20410;-84
2023/03/06 21:12:45;;;;;;;49.37;22.80;;;2.30;99.90;;;;;;4802027;29;20049;-84
2023/03/06 21:18:44;;;;;;;49.73;22.97;;;2.90;99.90;;;;;;4791436;29;20094;-84
2023/03/06 21:21:45;;;;;;;44.60;21.07;;;2.50;99.90;;;;;;4780351;29;20057;-83
2023/03/06 21:24:44;;;;;;;59.10;24.67;;;2.30;99.90;;;;;;4788420;29;20104;-85
2023/03/06 21:30:44;;;;;;;53.80;23.80;;;2.60;99.90;;;;;;4846506;24;20157;-84
2023/03/06 21:40:24;;;;;;;51.90;23.67;;;2.80;99.90;;;;;;4810152;29;20182;-85
2023/03/06 21:42:50;;;;;;;54.37;24.53;;;2.50;99.90;;;;;;4805841;29;20141;-85
2023/03/06 21:48:57;;;;;;;53.17;23.27;;;3.30;99.90;;;;;;4863803;24;20052;-85
2023/03/06 21:51:37;;;;;;;45.20;22.20;;;2.60;99.90;;;;;;4810319;24;20069;-86
2023/03/06 21:54:18;;;;;;;51.63;23.70;;;2.60;99.90;;;;;;4854272;29;20056;-86
2023/03/06 21:56:44;;;;;;;46.40;22.23;;;3.90;99.90;;;;;;4828651;29;20514;-86
2023/03/06 22:01:46;;;;;;;51.90;23.40;;;2.50;99.90;;;;;;4856541;24;20556;-85
2023/03/06 22:11:56;;;;;;;;;;;;;;;;;;;;;
2023/03/06 22:14:50;;;;;;;48.63;21.37;;;2.10;99.90;;;;;;4795672;29;20054;-86
2023/03/06 22:17:48;;;;;;;42.00;18.67;;;2.70;99.90;;;;;;4863584;29;20058;-88
2023/03/06 22:31:34;;;;;;;46.85;20.85;;;2.40;99.90;;;;;;4815954;29;20058;-87
2023/03/06 22:34:44;;;;;;;44.87;18.97;;;1.60;99.90;;;;;;4812805;29;20099;-86
2023/03/06 22:37:41;;;;;;;38.63;17.73;;;2.60;99.90;;;;;;4813430;23;20069;-86
2023/03/06 22:40:57;;;;;;;43.63;18.33;;;2.80;99.90;;;;;;4840084;29;20064;-86
2023/03/06 22:43:23;;;;;;;41.47;17.97;;;1.90;99.90;;;;;;4844334;29;20067;-87
2023/03/06 22:46:11;;;;;;;42.97;18.67;;;2.50;99.90;;;;;;4863488;29;20116;-86
2023/03/06 22:49:20;;;;;;;40.57;18.23;;;2.60;99.90;;;;;;4840623;29;20061;-85
2023/03/06 22:51:49;;;;;;;43.00;17.90;;;1.90;99.90;;;;;;4818885;29;20506;-87
2023/03/06 22:57:08;;;;;;;46.63;19.07;;;2.60;99.90;;;;;;4931084;23;20058;-87
2023/03/06 23:02:16;;;;;;;;;;;2.70;99.90;;;;;;4842649;29;20058;-86
2023/03/06 23:04:51;;;;;;;36.10;17.08;;;2.00;99.90;;;;;;4829738;29;19925;-86
2023/03/06 23:07:19;;;;;;;43.07;18.70;;;2.80;99.90;;;;;;4841675;29;20065;-86
2023/03/06 23:25:44;;;;;;;38.77;16.63;;;2.90;99.90;;;;;;3182472;23;20060;-87
2023/03/06 23:36:07;;;;;;;35.53;16.07;;;2.80;99.90;;;;;;4698691;30;20062;-86
